Mazeppa, Minnesota
Current Conditions -  °F | °C
As of 8:13 AM on Wednesday 28 Jan 2015 (Local Time) from K9MN Reporting Station
Overcast Overcast  
Wind Chill: 11°   Ceiling: 300
Heat Index: 24°   Visibility: 3mi
Dew Point: 24°   Wind: 16mph
Humidity: 96%   Direction: 130°SE
Pressure: 30.02"   Gusts: 25mph
Location:  44.27°N, 92.54°W
Report Text: K9MN 281413Z AUTO 13014G22KT 3SM OVC003 M04/M05 A3002 RMK AO1 T10421047
Loading
Personal Weather Stations






























Interactive Weather Map New forecast layout! Learn more

10-Day Weather Forecast

Advertisements
Track Severe Weather on mobile